createdAt,value
2018-09-06T00:00:15.969Z,12.20
2018-09-06T00:02:45.253Z,11.63
2018-09-06T00:05:14.274Z,12.50
2018-09-06T00:07:55.561Z,11.05
2018-09-06T00:13:27.316Z,12.05
2018-09-06T00:21:29.946Z,12.47
2018-09-06T00:23:59.112Z,13.25
2018-09-06T00:26:27.762Z,12.45
2018-09-06T00:28:56.416Z,12.73
2018-09-06T00:31:25.388Z,12.28
2018-09-06T00:33:54.073Z,13.55
2018-09-06T00:36:22.691Z,12.93
2018-09-06T00:38:51.287Z,12.25
2018-09-06T00:41:19.982Z,13.80
2018-09-06T00:43:48.610Z,13.65
2018-09-06T00:46:18.079Z,13.72
2018-09-06T00:48:46.719Z,13.62
2018-09-06T00:51:15.322Z,13.45
2018-09-06T00:53:44.349Z,12.40
2018-09-06T00:56:13.576Z,12.65
2018-09-06T00:58:42.142Z,12.60
2018-09-06T01:01:10.821Z,13.28
2018-09-06T01:03:39.439Z,12.28
2018-09-06T01:06:10.204Z,14.05
2018-09-06T01:08:38.788Z,12.40
2018-09-06T01:11:08.178Z,12.73
2018-09-06T01:13:39.003Z,12.82
2018-09-06T01:16:07.697Z,12.23
2018-09-06T01:18:37.492Z,12.88
2018-09-06T01:21:08.134Z,14.13
2018-09-06T01:23:36.925Z,12.70
2018-09-06T01:26:09.814Z,13.28
2018-09-06T01:28:38.923Z,11.93
2018-09-06T01:31:08.385Z,13.15
2018-09-06T01:33:39.020Z,11.80
2018-09-06T01:36:14.152Z,12.82
2018-09-06T01:38:43.918Z,13.00
2018-09-06T01:41:13.437Z,13.25
2018-09-06T01:43:44.762Z,13.62
2018-09-06T01:46:13.767Z,12.30
2018-09-06T01:48:42.773Z,13.40
2018-09-06T01:51:11.895Z,12.68
2018-09-06T01:53:43.593Z,12.58
2018-09-06T01:56:12.889Z,12.30
2018-09-06T01:58:41.823Z,13.28
2018-09-06T02:01:11.083Z,13.70
2018-09-06T02:03:41.455Z,12.60
2018-09-06T02:06:11.838Z,13.08
2018-09-06T02:08:40.588Z,13.48
2018-09-06T02:11:09.130Z,12.30
2018-09-06T02:13:40.123Z,12.40
2018-09-06T02:16:09.402Z,14.20
2018-09-06T02:18:37.966Z,14.28
2018-09-06T02:21:06.909Z,13.40
2018-09-06T02:23:35.492Z,13.38
2018-09-06T02:26:06.503Z,13.43
2018-09-06T02:28:35.159Z,14.10
2018-09-06T02:31:04.451Z,13.78
2018-09-06T02:33:33.412Z,12.75
2018-09-06T02:36:02.646Z,14.68
2018-09-06T02:38:32.101Z,12.73
2018-09-06T02:41:00.789Z,13.00
2018-09-06T02:43:29.435Z,13.65
2018-09-06T02:45:59.499Z,15.23
2018-09-06T02:48:34.434Z,13.58
2018-09-06T02:51:08.397Z,14.15
2018-09-06T02:53:37.044Z,12.35
2018-09-06T02:56:07.445Z,13.50
2018-09-06T02:58:36.541Z,13.30
2018-09-06T03:01:05.159Z,14.25
2018-09-06T03:03:34.482Z,14.30
2018-09-06T03:06:04.268Z,14.87
2018-09-06T03:08:32.902Z,14.63
2018-09-06T03:11:07.083Z,14.43
2018-09-06T03:13:36.376Z,13.60
2018-09-06T03:16:05.814Z,13.55
2018-09-06T03:18:34.476Z,13.22
2018-09-06T03:21:03.469Z,13.83
2018-09-06T03:23:32.095Z,15.38
2018-09-06T03:26:00.715Z,14.07
2018-09-06T03:28:30.271Z,16.00
2018-09-06T03:30:58.950Z,14.78
2018-09-06T03:33:28.077Z,16.23
2018-09-06T03:35:57.061Z,14.23
2018-09-06T03:38:26.144Z,15.25
2018-09-06T03:40:54.795Z,13.98
2018-09-06T03:43:23.832Z,15.80
2018-09-06T03:45:53.175Z,13.72
2018-09-06T03:48:22.890Z,13.95
2018-09-06T03:50:51.612Z,15.68
2018-09-06T03:53:20.955Z,14.85
2018-09-06T03:55:50.107Z,14.35
2018-09-06T03:58:20.949Z,14.80
2018-09-06T04:00:50.476Z,15.38
2018-09-06T04:03:20.409Z,13.85
2018-09-06T04:05:49.441Z,15.55
2018-09-06T04:08:18.445Z,14.68
2018-09-06T04:10:47.172Z,14.45
2018-09-06T04:13:16.253Z,14.85
2018-09-06T04:15:45.133Z,15.40
2018-09-06T04:18:19.237Z,14.93
2018-09-06T04:20:49.559Z,15.78
2018-09-06T04:23:18.083Z,16.45
2018-09-06T04:25:50.229Z,15.25
2018-09-06T04:28:20.035Z,15.03
2018-09-06T04:31:18.887Z,15.20
2018-09-06T04:33:51.014Z,14.90
2018-09-06T04:36:20.355Z,15.00
2018-09-06T04:38:50.022Z,15.30
2018-09-06T04:41:18.522Z,15.30
2018-09-06T04:43:47.407Z,15.65
2018-09-06T04:46:16.036Z,15.10
2018-09-06T04:48:44.589Z,15.65
2018-09-06T04:51:14.451Z,17.32
2018-09-06T04:53:43.647Z,16.67
2018-09-06T04:56:12.135Z,17.02
2018-09-06T04:58:41.013Z,15.72
2018-09-06T05:01:10.410Z,16.57
2018-09-06T05:03:39.249Z,16.35
2018-09-06T05:06:08.065Z,16.82
2018-09-06T05:08:36.849Z,16.77
2018-09-06T05:11:05.690Z,16.25
2018-09-06T05:13:34.127Z,16.07
2018-09-06T05:16:02.629Z,15.50
2018-09-06T05:18:31.120Z,17.67
2018-09-06T05:20:59.592Z,16.82
2018-09-06T05:24:52.643Z,16.35
2018-09-06T05:27:21.107Z,14.95
2018-09-06T05:29:49.922Z,16.37
2018-09-06T05:32:20.149Z,17.32
2018-09-06T05:34:50.345Z,17.15
2018-09-06T05:37:18.860Z,17.45
2018-09-06T05:39:47.336Z,16.23
2018-09-06T05:45:18.782Z,17.10
2018-09-06T05:48:00.853Z,17.55
2018-09-06T05:50:31.979Z,16.80
2018-09-06T05:56:18.418Z,14.87
2018-09-06T05:58:47.159Z,17.20
2018-09-06T06:01:16.112Z,16.35
2018-09-06T06:03:45.989Z,16.55
2018-09-06T06:06:14.946Z,16.00
2018-09-06T06:08:49.086Z,15.20
2018-09-06T06:11:18.770Z,16.35
2018-09-06T06:13:48.382Z,15.25
2018-09-06T06:16:17.533Z,15.23
2018-09-06T06:18:46.372Z,15.43
2018-09-06T06:21:14.887Z,13.45
2018-09-06T06:23:43.745Z,15.35
2018-09-06T06:26:12.589Z,15.98
2018-09-06T06:28:41.425Z,16.27
2018-09-06T06:31:11.437Z,14.00
2018-09-06T06:33:40.949Z,14.80
2018-09-06T06:36:10.459Z,15.45
2018-09-06T06:38:39.615Z,14.25
2018-09-06T06:41:09.595Z,14.43
2018-09-06T06:43:38.169Z,14.33
2018-09-06T06:46:07.330Z,14.43
2018-09-06T06:48:36.263Z,13.60
2018-09-06T06:51:05.232Z,13.10
2018-09-06T06:53:34.069Z,12.90
2018-09-06T06:56:02.901Z,13.70
2018-09-06T06:58:31.825Z,13.20
2018-09-06T07:01:00.549Z,13.75
2018-09-06T07:03:29.209Z,12.18
2018-09-06T07:05:58.055Z,12.28
2018-09-06T07:08:26.894Z,12.93
2018-09-06T07:10:56.464Z,12.37
2018-09-06T07:13:25.287Z,13.32
2018-09-06T07:15:54.818Z,13.13
2018-09-06T07:18:24.054Z,12.60
2018-09-06T07:20:53.968Z,12.35
2018-09-06T07:23:22.658Z,12.15
2018-09-06T07:25:51.482Z,11.35
2018-09-06T07:28:20.661Z,12.73
2018-09-06T07:30:49.686Z,12.45
2018-09-06T07:33:18.826Z,12.05
2018-09-06T07:35:47.676Z,12.40
2018-09-06T07:38:16.473Z,11.57
2018-09-06T07:40:44.953Z,11.50
2018-09-06T07:43:13.775Z,11.40
2018-09-06T07:45:43.545Z,11.48
2018-09-06T07:48:12.096Z,11.85
2018-09-06T07:50:40.926Z,10.95
2018-09-06T07:53:09.388Z,11.90
2018-09-06T07:55:37.868Z,12.40
2018-09-06T07:58:06.336Z,11.05
2018-09-06T08:00:34.877Z,10.82
2018-09-06T08:03:03.686Z,11.35
2018-09-06T08:05:32.495Z,10.40
2018-09-06T08:08:00.976Z,10.72
2018-09-06T08:10:30.375Z,11.88
2018-09-06T08:12:59.205Z,11.20
2018-09-06T08:15:27.717Z,10.88
2018-09-06T08:17:56.185Z,10.75
2018-09-06T08:20:25.295Z,11.00
2018-09-06T08:22:54.151Z,12.00
2018-09-06T08:25:23.373Z,11.97
2018-09-06T08:27:52.324Z,11.28
2018-09-06T08:30:20.931Z,11.95
2018-09-06T08:32:49.810Z,10.10
2018-09-06T08:35:18.667Z,9.88
2018-09-06T08:37:47.194Z,10.60
2018-09-06T08:40:15.996Z,10.05
2018-09-06T08:42:45.143Z,9.75
2018-09-06T08:45:14.023Z,9.13
2018-09-06T08:47:42.987Z,9.95
2018-09-06T08:50:11.814Z,9.65
2018-09-06T08:52:40.304Z,8.85
2018-09-06T08:55:09.108Z,9.25
2018-09-06T08:57:37.946Z,9.30
2018-09-06T09:00:06.464Z,10.23
2018-09-06T09:02:34.955Z,8.90
2018-09-06T09:05:03.614Z,8.18
2018-09-06T09:07:33.017Z,8.90
2018-09-06T09:10:02.626Z,8.73
2018-09-06T09:12:31.159Z,8.50
2018-09-06T09:14:59.728Z,8.05
2018-09-06T09:17:28.568Z,8.20
2018-09-06T09:19:57.650Z,7.43
2018-09-06T09:22:26.828Z,7.80
2018-09-06T09:24:55.095Z,7.87
2018-09-06T09:27:23.324Z,8.53
2018-09-06T09:29:51.860Z,7.97
2018-09-06T09:32:20.390Z,7.77
2018-09-06T09:34:48.952Z,7.77
2018-09-06T09:37:17.144Z,8.17
2018-09-06T09:39:45.354Z,8.00
2018-09-06T09:42:13.901Z,7.57
2018-09-06T09:44:42.751Z,7.47
2018-09-06T09:49:39.033Z,8.07
2018-09-06T09:52:08.080Z,8.07
2018-09-06T09:54:36.301Z,6.87
2018-09-06T09:57:04.805Z,7.57
2018-09-06T09:59:33.438Z,7.43
2018-09-06T10:02:06.961Z,7.80
2018-09-06T10:04:44.130Z,6.67
2018-09-06T10:08:18.342Z,7.13
2018-09-06T10:10:47.693Z,7.97
2018-09-06T10:13:16.014Z,7.60
2018-09-06T10:15:44.921Z,6.70
2018-09-06T10:18:13.569Z,6.77
2018-09-06T10:20:42.254Z,7.10
2018-09-06T10:23:11.112Z,7.53
2018-09-06T10:25:39.293Z,6.63
2018-09-06T10:28:07.538Z,7.33
2018-09-06T10:30:36.210Z,7.40
2018-09-06T10:33:04.765Z,6.80
2018-09-06T10:35:33.607Z,6.80
2018-09-06T10:38:02.398Z,6.90
2018-09-06T10:40:31.822Z,6.80
2018-09-06T10:43:00.208Z,7.40
2018-09-06T10:45:28.411Z,7.27
2018-09-06T10:47:56.707Z,7.17
2018-09-06T10:50:25.065Z,6.37
2018-09-06T10:52:53.289Z,6.43
2018-09-06T10:55:21.843Z,6.57
2018-09-06T10:57:50.589Z,7.03
2018-09-06T11:00:19.233Z,6.80
2018-09-06T11:02:47.476Z,7.30
2018-09-06T11:05:15.693Z,6.13
2018-09-06T11:07:44.333Z,7.23
2018-09-06T11:10:13.537Z,6.97
2018-09-06T11:12:41.785Z,6.40
2018-09-06T11:15:10.734Z,7.20
2018-09-06T11:17:39.683Z,7.17
2018-09-06T11:20:08.201Z,6.70
2018-09-06T11:22:36.761Z,7.10
2018-09-06T11:25:05.137Z,6.17
2018-09-06T11:27:33.769Z,7.00
2018-09-06T11:30:02.126Z,6.73
2018-09-06T11:32:30.680Z,6.80
2018-09-06T11:34:58.901Z,6.70
2018-09-06T11:37:27.427Z,7.10
2018-09-06T11:39:56.092Z,7.50
2018-09-06T11:42:24.689Z,7.63
2018-09-06T11:44:52.981Z,7.87
2018-09-06T11:47:21.273Z,7.80
2018-09-06T11:49:49.580Z,6.13
2018-09-06T11:52:18.125Z,7.47
2018-09-06T11:54:46.695Z,6.77
2018-09-06T11:57:15.225Z,6.60
2018-09-06T11:59:43.762Z,7.90
2018-09-06T12:02:12.702Z,7.13
2018-09-06T12:04:41.377Z,7.67
2018-09-06T12:07:10.305Z,7.53
2018-09-06T12:09:38.694Z,8.67
2018-09-06T12:12:07.853Z,7.87
2018-09-06T12:14:37.753Z,7.40
2018-09-06T12:17:06.896Z,7.20
2018-09-06T12:19:35.540Z,6.90
2018-09-06T12:22:03.933Z,7.03
2018-09-06T12:24:32.537Z,7.10
2018-09-06T12:27:01.412Z,7.23
2018-09-06T12:29:29.652Z,8.03
2018-09-06T12:31:58.191Z,7.97
2018-09-06T12:34:26.866Z,7.70
2018-09-06T12:36:55.418Z,8.17
2018-09-06T12:39:26.906Z,8.00
2018-09-06T12:41:55.703Z,7.70
2018-09-06T12:44:25.180Z,7.37
2018-09-06T12:46:55.097Z,6.40
2018-09-06T12:49:24.053Z,7.37
2018-09-06T12:51:53.548Z,6.80
2018-09-06T12:54:23.045Z,6.93
2018-09-06T12:56:52.241Z,7.63
2018-09-06T12:59:22.172Z,7.07
2018-09-06T13:01:51.216Z,7.27
2018-09-06T13:04:20.332Z,8.00
2018-09-06T13:06:49.725Z,7.40
2018-09-06T13:09:18.331Z,7.70
2018-09-06T13:14:21.528Z,7.70
2018-09-06T13:16:50.049Z,7.10
2018-09-06T13:19:18.899Z,6.43
2018-09-06T13:21:49.201Z,6.43
2018-09-06T13:24:17.746Z,7.10
2018-09-06T13:26:47.465Z,7.50
2018-09-06T13:29:15.991Z,6.93
2018-09-06T13:31:44.751Z,7.63
2018-09-06T13:34:13.628Z,7.40
2018-09-06T13:36:42.769Z,8.80
2018-09-06T13:39:12.029Z,8.40
2018-09-06T13:41:40.266Z,7.60
2018-09-06T13:44:09.058Z,7.87
2018-09-06T13:46:38.579Z,7.40
2018-09-06T13:49:07.446Z,7.50
2018-09-06T13:51:37.808Z,7.70
2018-09-06T13:54:08.350Z,7.60
2018-09-06T13:56:38.653Z,7.83
2018-09-06T13:59:07.696Z,8.13
2018-09-06T14:01:37.341Z,7.20
2018-09-06T14:04:07.497Z,8.20
2018-09-06T14:06:35.709Z,8.13
2018-09-06T14:09:05.268Z,7.83
2018-09-06T14:11:33.798Z,7.63
2018-09-06T14:15:05.314Z,7.90
2018-09-06T14:17:33.583Z,8.90
2018-09-06T14:20:01.771Z,7.93
2018-09-06T14:22:30.040Z,8.20
2018-09-06T14:24:58.390Z,7.00
2018-09-06T14:27:28.010Z,8.43
2018-09-06T14:29:57.448Z,8.00
2018-09-06T14:32:26.073Z,8.13
2018-09-06T14:34:54.621Z,7.93
2018-09-06T14:37:22.844Z,7.60
2018-09-06T14:39:51.428Z,7.40
2018-09-06T14:42:20.952Z,7.47
2018-09-06T14:44:49.165Z,7.07
2018-09-06T14:47:17.418Z,7.80
2018-09-06T14:49:45.614Z,7.70
2018-09-06T14:52:14.613Z,6.97
2018-09-06T14:54:42.782Z,6.73
2018-09-06T14:57:11.289Z,7.80
2018-09-06T14:59:39.809Z,7.57
2018-09-06T15:02:08.001Z,7.83
2018-09-06T15:04:36.678Z,7.37
2018-09-06T15:07:05.547Z,7.33
2018-09-06T15:09:35.165Z,7.40
2018-09-06T15:12:03.385Z,8.00
2018-09-06T15:14:31.918Z,8.27
2018-09-06T15:17:00.150Z,8.10
2018-09-06T15:19:28.705Z,7.57
2018-09-06T15:21:57.254Z,7.40
2018-09-06T15:24:25.867Z,8.20
2018-09-06T15:26:54.701Z,7.83
2018-09-06T15:29:23.345Z,7.47
2018-09-06T15:31:51.515Z,8.03
2018-09-06T15:34:19.739Z,7.63
2018-09-06T15:36:47.953Z,7.47
2018-09-06T15:39:17.170Z,6.90
2018-09-06T15:41:45.709Z,7.77
2018-09-06T15:44:14.643Z,7.37
2018-09-06T15:46:43.956Z,7.53
2018-09-06T15:49:13.113Z,7.83
2018-09-06T15:51:42.006Z,7.43
2018-09-06T15:54:10.785Z,8.00
2018-09-06T15:56:39.174Z,7.23
2018-09-06T15:59:07.713Z,7.60
2018-09-06T16:01:35.919Z,8.40
2018-09-06T16:04:05.505Z,8.50
2018-09-06T16:06:34.082Z,8.10
2018-09-06T16:09:02.282Z,8.07
2018-09-06T16:11:30.477Z,8.20
2018-09-06T16:13:58.684Z,7.50
2018-09-06T16:16:27.215Z,8.90
2018-09-06T16:18:55.867Z,7.67
2018-09-06T16:21:24.183Z,8.27
2018-09-06T16:23:52.981Z,8.20
2018-09-06T16:26:21.999Z,8.00
2018-09-06T16:28:50.182Z,7.60
2018-09-06T16:31:19.686Z,8.10
2018-09-06T16:50:35.012Z,8.20
2018-09-06T16:53:03.256Z,9.53
2018-09-06T16:55:32.151Z,8.90
2018-09-06T17:00:46.954Z,8.03
2018-09-06T17:06:21.142Z,6.30
2018-09-06T17:15:15.494Z,6.20
2018-09-06T17:45:21.923Z,6.70
2018-09-06T17:47:50.511Z,6.73
2018-09-06T17:50:29.449Z,6.93
2018-09-06T17:53:00.018Z,6.50
2018-09-06T17:55:28.630Z,7.10
2018-09-06T17:58:02.048Z,7.00
2018-09-06T18:03:24.167Z,6.27
2018-09-06T18:05:52.504Z,7.00
2018-09-06T18:08:24.037Z,7.20
2018-09-06T18:10:52.290Z,7.80
2018-09-06T18:13:21.923Z,7.13
2018-09-06T18:15:52.278Z,7.10
2018-09-06T18:18:21.765Z,7.37
2018-09-06T18:20:50.290Z,7.43
2018-09-06T18:23:18.659Z,6.73
2018-09-06T18:25:48.848Z,7.83
2018-09-06T18:28:18.385Z,7.70
2018-09-06T18:30:47.094Z,6.67
2018-09-06T18:33:16.077Z,7.43
2018-09-06T18:35:44.516Z,8.23
2018-09-06T18:38:14.231Z,8.37
2018-09-06T18:40:44.354Z,7.50
2018-09-06T18:43:12.591Z,7.37
2018-09-06T18:45:44.467Z,9.67
2018-09-06T18:48:13.669Z,6.70
2018-09-06T18:50:46.058Z,7.53
2018-09-06T18:53:20.504Z,7.67
2018-09-06T18:55:49.312Z,8.03
2018-09-06T18:58:18.386Z,7.60
2018-09-06T19:00:48.071Z,8.30
2018-09-06T19:03:17.157Z,6.77
2018-09-06T19:05:45.551Z,7.90
2018-09-06T19:08:14.732Z,7.50
2018-09-06T19:10:44.525Z,7.55
2018-09-06T19:13:15.499Z,8.07
2018-09-06T19:15:44.381Z,7.47
2018-09-06T19:18:29.441Z,7.03
2018-09-06T19:20:58.500Z,7.60
2018-09-06T19:23:26.718Z,7.90
2018-09-06T19:25:55.293Z,7.63
2018-09-06T19:28:23.857Z,7.60
2018-09-06T19:30:52.418Z,8.20
2018-09-06T19:33:21.026Z,8.03
2018-09-06T19:35:49.908Z,7.80
2018-09-06T19:38:18.484Z,7.40
2018-09-06T19:40:48.965Z,8.85
2018-09-06T19:43:18.224Z,7.30
2018-09-06T19:45:46.789Z,7.93
2018-09-06T19:48:16.533Z,7.87
2018-09-06T19:50:45.361Z,7.92
2018-09-06T19:53:18.391Z,8.55
2018-09-06T19:55:47.049Z,7.40
2018-09-06T19:58:15.495Z,8.68
2018-09-06T20:00:43.951Z,8.18
2018-09-06T20:03:13.725Z,8.98
2018-09-06T20:05:42.533Z,9.10
2018-09-06T20:08:11.451Z,8.10
2018-09-06T20:10:40.525Z,8.17
2018-09-06T20:13:08.984Z,7.95
2018-09-06T20:15:37.810Z,7.28
2018-09-06T20:18:06.264Z,8.85
2018-09-06T20:20:35.302Z,8.18
2018-09-06T20:23:04.465Z,8.98
2018-09-06T20:25:32.985Z,8.70
2018-09-06T20:28:04.239Z,8.83
2018-09-06T20:38:33.476Z,9.33
2018-09-06T20:41:29.118Z,9.85
2018-09-06T20:44:14.883Z,10.72
2018-09-06T21:00:43.213Z,12.35
2018-09-06T21:03:12.215Z,11.33
2018-09-06T21:09:07.568Z,11.90
2018-09-06T21:11:37.142Z,12.58
2018-09-06T21:14:06.598Z,12.50
2018-09-06T21:16:36.069Z,11.75
2018-09-06T21:19:04.876Z,12.60
2018-09-06T21:21:33.341Z,13.45
2018-09-06T21:24:01.834Z,12.37
2018-09-06T21:26:30.673Z,18.35
2018-09-06T21:28:59.236Z,13.40
2018-09-06T21:31:28.707Z,14.73
2018-09-06T21:33:58.765Z,12.45
2018-09-06T21:36:27.547Z,12.90
2018-09-06T21:38:56.002Z,12.88
2018-09-06T21:41:24.478Z,12.70
2018-09-06T21:43:52.940Z,13.45
2018-09-06T21:46:22.061Z,12.05
2018-09-06T21:48:50.903Z,13.43
2018-09-06T21:51:20.407Z,13.72
2018-09-06T21:53:48.964Z,11.60
2018-09-06T21:56:17.441Z,12.68
2018-09-06T21:58:45.936Z,13.68
2018-09-06T22:01:16.205Z,12.73
2018-09-06T22:03:50.461Z,13.40
2018-09-06T22:06:19.251Z,12.53
2018-09-06T22:08:47.725Z,12.30
2018-09-06T22:11:17.102Z,13.10
2018-09-06T22:13:45.573Z,12.73
2018-09-06T22:16:14.057Z,12.58
2018-09-06T22:18:42.636Z,12.00
2018-09-06T22:21:11.436Z,12.37
2018-09-06T22:23:39.885Z,11.10
2018-09-06T22:26:08.701Z,12.58
2018-09-06T22:28:37.330Z,12.05
2018-09-06T22:31:06.200Z,11.85
2018-09-06T22:33:35.021Z,12.13
2018-09-06T22:36:03.873Z,12.25
2018-09-06T22:38:33.125Z,12.98
2018-09-06T22:41:02.989Z,12.43
2018-09-06T22:43:31.857Z,12.30
2018-09-06T22:46:01.154Z,13.28
2018-09-06T22:48:29.985Z,11.63
2018-09-06T22:50:58.802Z,10.60
2018-09-06T22:53:27.283Z,11.53
2018-09-06T22:55:56.074Z,10.88
2018-09-06T22:58:24.910Z,11.73
2018-09-06T23:00:53.398Z,10.30
2018-09-06T23:03:27.944Z,11.60
2018-09-06T23:05:56.440Z,10.65
2018-09-06T23:08:24.986Z,10.85
2018-09-06T23:10:53.504Z,10.20
2018-09-06T23:13:21.946Z,11.80
2018-09-06T23:15:50.789Z,11.45
2018-09-06T23:18:19.619Z,11.60
2018-09-06T23:20:48.102Z,10.08
2018-09-06T23:23:17.225Z,10.45
2018-09-06T23:25:45.776Z,11.10
2018-09-06T23:28:14.541Z,10.75
2018-09-06T23:30:44.014Z,11.88
2018-09-06T23:33:12.829Z,11.80
2018-09-06T23:35:44.193Z,10.10
2018-09-06T23:38:14.124Z,10.45
2018-09-06T23:40:48.241Z,10.53
2018-09-06T23:43:17.121Z,10.25
2018-09-06T23:45:46.012Z,10.70
2018-09-06T23:48:14.961Z,10.05
2018-09-06T23:50:44.686Z,11.10
2018-09-06T23:53:13.532Z,10.60
2018-09-06T23:55:43.738Z,11.00
2018-09-06T23:58:12.233Z,10.32
